Time;durP1;ratioP1;P1;durP2;ratioP2;P2;SDS_P1;SDS_P2;PMS_P1;PMS_P2;Temp;Humidity;BMP_temperature;BMP_pressure;BME280_temperature;BME280_humidity;BME280_pressure;Samples;Min_cycle;Max_cycle;Signal;HPM_P1;HPM_P2
2022/03/02 00:00:08;;;;;;;310.53;80.07;;;;;;;3.34;70.26;100258.03;340102;29;1090;-73
2022/03/02 00:00:18;;;;;;;310.98;80.72;;;;;;;3.32;70.08;100260.63;341668;28;1268;-72
2022/03/02 00:00:29;;;;;;;310.87;80.83;;;;;;;3.33;70.26;100262.34;342742;28;940;-73
2022/03/02 00:00:39;;;;;;;310.23;80.67;;;;;;;3.33;70.24;100258.91;341372;29;873;-72
2022/03/02 00:00:49;;;;;;;310.27;80.88;;;;;;;3.32;70.52;100259.75;341309;29;935;-72
2022/03/02 00:01:00;;;;;;;312.80;82.03;;;;;;;3.34;70.56;100258.03;342570;28;897;-72
2022/03/02 00:01:14;;;;;;;313.88;81.88;;;;;;;3.33;70.22;100257.19;342650;28;1231;-73
2022/03/02 00:01:25;;;;;;;312.46;80.24;;;;;;;3.34;70.41;100263.22;344027;28;853;-72
2022/03/02 00:01:35;;;;;;;311.07;79.47;;;;;;;3.34;70.29;100258.03;342605;28;1416;-72
2022/03/02 00:01:46;;;;;;;309.52;79.50;;;;;;;3.34;70.42;100261.47;345358;28;1200;-72
2022/03/02 00:01:57;;;;;;;309.47;79.97;;;;;;;3.35;70.70;100259.75;345242;28;1184;-71
2022/03/02 00:02:07;;;;;;;308.52;79.68;;;;;;;3.36;70.21;100260.63;342778;28;876;-71
2022/03/02 00:02:17;;;;;;;307.93;79.83;;;;;;;3.34;70.56;100265.81;342525;28;1626;-71
2022/03/02 00:02:28;;;;;;;310.20;79.80;;;;;;;3.33;70.39;100258.91;341872;29;948;-71
2022/03/02 00:02:38;;;;;;;312.03;80.30;;;;;;;3.33;70.30;100266.66;342191;28;1966;-71
2022/03/02 00:02:48;;;;;;;312.42;80.15;;;;;;;3.30;70.55;100259.75;341306;29;802;-71
2022/03/02 00:02:59;;;;;;;312.23;81.17;;;;;;;3.31;71.22;100252.88;341190;28;940;-71
2022/03/02 00:03:09;;;;;;;311.35;80.88;;;;;;;3.30;71.07;100253.72;343848;28;1239;-71
2022/03/02 00:03:20;;;;;;;310.40;80.00;;;;;;;3.31;70.90;100258.91;344055;28;840;-71
2022/03/02 00:03:30;;;;;;;310.35;79.70;;;;;;;3.32;71.12;100254.59;344045;28;1262;-71
2022/03/02 00:03:41;;;;;;;310.93;79.50;;;;;;;3.31;70.72;100258.91;339916;28;1193;-70
2022/03/02 00:03:52;;;;;;;311.25;79.57;;;;;;;3.31;71.18;100258.03;342700;28;985;-70
2022/03/02 00:04:02;;;;;;;311.17;78.77;;;;;;;3.31;71.61;100258.03;341108;28;1415;-71
2022/03/02 00:04:13;;;;;;;310.55;79.55;;;;;;;3.31;70.88;100260.63;341411;29;879;-71
2022/03/02 00:04:23;;;;;;;310.20;79.97;;;;;;;3.33;71.23;100258.91;342825;28;918;-70
2022/03/02 00:04:34;;;;;;;310.65;79.68;;;;;;;3.32;70.72;100249.41;343972;28;1207;-70
2022/03/02 00:04:44;;;;;;;312.63;79.13;;;;;;;3.31;71.17;100258.91;343734;28;1605;-70
2022/03/02 00:04:54;;;;;;;312.13;79.05;;;;;;;3.30;71.26;100264.94;345026;28;2030;-70
2022/03/02 00:05:05;;;;;;;312.00;80.07;;;;;;;3.30;70.86;100254.59;341529;28;2215;-70
2022/03/02 00:05:16;;;;;;;310.77;80.20;;;;;;;3.27;71.28;100252.00;343589;28;1311;-70
2022/03/02 00:05:27;;;;;;;310.42;81.05;;;;;;;3.26;70.82;100257.19;342742;28;1058;-70
2022/03/02 00:05:38;;;;;;;309.60;81.47;;;;;;;3.21;70.86;100253.72;344831;28;1293;-70
2022/03/02 00:05:48;;;;;;;309.88;81.07;;;;;;;3.20;70.79;100259.78;342594;28;948;-70
2022/03/02 00:05:58;;;;;;;311.13;80.57;;;;;;;3.20;71.37;100257.19;341269;28;1539;-72
2022/03/02 00:06:09;;;;;;;312.52;79.40;;;;;;;3.20;71.45;100254.59;344072;28;908;-72
2022/03/02 00:06:19;;;;;;;315.17;80.93;;;;;;;3.22;70.98;100258.91;344037;28;960;-72
2022/03/02 00:06:30;;;;;;;314.42;80.78;;;;;;;3.24;70.80;100258.91;344063;28;947;-71
2022/03/02 00:06:40;;;;;;;316.40;81.20;;;;;;;3.23;71.32;100255.47;341360;29;877;-71
2022/03/02 00:06:51;;;;;;;314.75;80.25;;;;;;;3.24;71.17;100251.16;342685;28;1482;-71
2022/03/02 00:07:01;;;;;;;316.60;80.67;;;;;;;3.26;70.54;100257.19;345418;28;791;-72
2022/03/02 00:07:12;;;;;;;313.05;80.28;;;;;;;3.26;71.38;100252.88;346494;28;1710;-71
2022/03/02 00:07:22;;;;;;;312.43;80.70;;;;;;;3.27;70.72;100252.00;343871;28;1149;-72
2022/03/02 00:07:32;;;;;;;310.17;80.03;;;;;;;3.27;70.42;100254.59;342278;28;1529;-72
2022/03/02 00:07:43;;;;;;;310.00;80.47;;;;;;;3.27;70.60;100253.72;344334;28;805;-72
2022/03/02 00:07:53;;;;;;;309.03;79.63;;;;;;;3.28;70.99;100258.03;342691;28;1039;-72
2022/03/02 00:08:04;;;;;;;309.87;80.37;;;;;;;3.28;71.18;100258.03;342611;28;1382;-72
2022/03/02 00:08:14;;;;;;;309.83;80.68;;;;;;;3.30;70.46;100262.34;342590;28;1172;-72
2022/03/02 00:08:25;;;;;;;311.60;81.57;;;;;;;3.29;70.65;100254.59;342496;28;934;-72
2022/03/02 00:08:36;;;;;;;311.90;81.43;;;;;;;3.30;70.54;100258.91;341436;29;939;-71
2022/03/02 00:08:46;;;;;;;312.20;80.95;;;;;;;3.31;70.54;100263.22;339988;29;1130;-71
2022/03/02 00:08:57;;;;;;;312.43;80.07;;;;;;;3.29;70.97;100255.44;342186;28;1226;-71
2022/03/02 00:09:07;;;;;;;312.90;80.40;;;;;;;3.29;70.13;100254.59;342644;28;1007;-71
2022/03/02 00:09:17;;;;;;;313.83;81.03;;;;;;;3.29;70.75;100260.63;342601;28;1288;-71
2022/03/02 00:09:29;;;;;;;313.40;81.20;;;;;;;3.27;70.27;100256.31;342612;28;928;-71
2022/03/02 00:09:39;;;;;;;316.05;82.05;;;;;;;3.27;70.49;100262.34;342747;28;877;-71
2022/03/02 00:09:50;;;;;;;315.83;82.35;;;;;;;3.27;70.84;100253.72;345266;28;1904;-71
2022/03/02 00:10:01;;;;;;;315.73;82.57;;;;;;;3.27;70.90;100261.50;344005;28;1521;-71
2022/03/02 00:10:11;;;;;;;314.08;82.07;;;;;;;3.24;70.42;100257.19;343375;28;1783;-71
2022/03/02 00:10:22;;;;;;;313.80;82.83;;;;;;;3.25;70.86;100258.03;340351;29;1023;-71
2022/03/02 00:10:32;;;;;;;316.15;83.05;;;;;;;3.26;70.41;100252.00;341245;29;1376;-71
2022/03/02 00:10:43;;;;;;;315.37;82.27;;;;;;;3.27;70.93;100258.91;344071;28;995;-71
2022/03/02 00:10:53;;;;;;;314.77;81.78;;;;;;;3.28;70.70;100260.63;343974;28;1299;-71
2022/03/02 00:11:04;;;;;;;315.10;81.87;;;;;;;3.27;70.82;100256.31;342457;28;1370;-71
2022/03/02 00:11:16;;;;;;;316.23;82.28;;;;;;;3.29;70.91;100260.63;346675;28;1215;-71
2022/03/02 00:11:29;;;;;;;317.13;82.03;;;;;;;3.30;70.62;100258.91;345351;28;905;-71
2022/03/02 00:11:40;;;;;;;316.02;82.25;;;;;;;3.31;71.27;100258.03;342715;28;970;-71
2022/03/02 00:11:50;;;;;;;313.67;81.87;;;;;;;3.29;70.79;100260.63;341255;28;1201;-71
2022/03/02 00:12:01;;;;;;;314.48;81.88;;;;;;;3.31;70.61;100258.91;343927;28;1334;-71
2022/03/02 00:12:11;;;;;;;313.67;81.53;;;;;;;3.31;71.07;100252.88;343642;28;1858;-71
2022/03/02 00:12:22;;;;;;;313.70;82.20;;;;;;;3.30;70.90;100256.31;341105;29;1681;-71
2022/03/02 00:12:33;;;;;;;315.43;83.70;;;;;;;3.29;71.10;100254.59;343150;28;1025;-71
2022/03/02 00:12:44;;;;;;;313.88;83.30;;;;;;;3.28;70.92;100247.69;341462;28;1300;-71
2022/03/02 00:12:54;;;;;;;316.17;83.43;;;;;;;3.31;71.39;100258.03;341428;29;909;-71
2022/03/02 00:13:05;;;;;;;317.90;84.87;;;;;;;3.32;70.77;100259.75;341631;28;1184;-71
2022/03/02 00:13:15;;;;;;;318.10;84.05;;;;;;;3.30;70.77;100257.19;342711;28;1060;-71
2022/03/02 00:13:26;;;;;;;315.20;82.73;;;;;;;3.30;71.38;100261.50;341274;28;1184;-71
2022/03/02 00:13:36;;;;;;;312.77;80.38;;;;;;;3.30;71.23;100253.72;340001;29;1550;-72
2022/03/02 00:13:46;;;;;;;311.87;79.77;;;;;;;3.30;71.06;100258.91;342693;28;1271;-72
2022/03/02 00:14:00;;;;;;;311.83;80.40;;;;;;;3.29;71.04;100255.44;343888;28;1486;-72
2022/03/02 00:14:10;;;;;;;311.50;80.05;;;;;;;3.29;71.50;100254.59;341383;29;1008;-72
2022/03/02 00:14:21;;;;;;;311.30;79.60;;;;;;;3.28;71.38;100247.69;343735;28;1151;-72
2022/03/02 00:14:31;;;;;;;311.63;80.28;;;;;;;3.28;71.68;100252.88;343975;28;1256;-72
2022/03/02 00:14:41;;;;;;;314.73;83.07;;;;;;;3.29;71.14;100249.41;342699;28;895;-72
2022/03/02 00:14:52;;;;;;;316.35;83.20;;;;;;;3.28;71.04;100255.47;342244;28;2107;-72
2022/03/02 00:15:03;;;;;;;315.77;83.00;;;;;;;3.27;71.35;100248.56;339898;29;1318;-72
2022/03/02 00:15:13;;;;;;;313.94;80.74;;;;;;;3.27;71.25;100252.00;341350;29;893;-72
2022/03/02 00:15:24;;;;;;;313.00;80.83;;;;;;;3.28;71.24;100252.88;342598;28;1188;-72
2022/03/02 00:15:35;;;;;;;313.25;81.38;;;;;;;3.28;71.31;100247.69;345464;28;1198;-72
2022/03/02 00:15:45;;;;;;;314.00;81.80;;;;;;;3.30;70.90;100256.31;341779;28;1429;-72
2022/03/02 00:15:56;;;;;;;312.53;81.23;;;;;;;3.26;71.33;100250.28;342446;28;1269;-72
2022/03/02 00:16:06;;;;;;;312.10;80.18;;;;;;;3.26;71.10;100249.41;342640;28;1240;-72
2022/03/02 00:16:17;;;;;;;309.33;79.57;;;;;;;3.26;71.65;100250.28;342631;28;984;-72
2022/03/02 00:16:28;;;;;;;307.60;78.53;;;;;;;3.27;71.80;100251.16;341330;29;874;-72
2022/03/02 00:16:38;;;;;;;309.00;79.43;;;;;;;3.27;71.46;100251.16;339981;28;1347;-72
2022/03/02 00:16:49;;;;;;;310.70;79.57;;;;;;;3.28;71.32;100255.47;342666;28;932;-72
2022/03/02 00:16:59;;;;;;;313.70;80.17;;;;;;;3.24;71.52;100258.91;342375;28;2065;-72
2022/03/02 00:17:10;;;;;;;313.83;80.20;;;;;;;3.21;71.61;100249.41;342395;28;2960;-72
2022/03/02 00:17:20;;;;;;;313.80;81.57;;;;;;;3.23;71.42;100250.28;339671;29;1582;-72
2022/03/02 00:17:31;;;;;;;310.83;81.57;;;;;;;3.24;71.86;100253.72;340732;29;1965;-72
2022/03/02 00:17:41;;;;;;;310.63;82.43;;;;;;;3.23;71.78;100252.00;341236;29;910;-70
2022/03/02 00:17:52;;;;;;;311.97;81.20;;;;;;;3.25;71.44;100250.28;341540;28;1351;-70
2022/03/02 00:18:02;;;;;;;313.98;80.18;;;;;;;3.23;71.40;100244.25;340032;29;1081;-70
2022/03/02 00:18:13;;;;;;;312.27;78.57;;;;;;;3.24;71.41;100256.31;342828;28;889;-70
2022/03/02 00:18:23;;;;;;;310.07;77.90;;;;;;;3.22;72.18;100245.13;344302;28;1427;-70
2022/03/02 00:18:34;;;;;;;310.05;78.32;;;;;;;3.18;71.48;100256.31;339976;29;1141;-70
2022/03/02 00:18:44;;;;;;;311.50;79.32;;;;;;;3.18;72.16;100251.16;342675;28;1087;-70
2022/03/02 00:18:56;;;;;;;312.10;80.07;;;;;;;3.22;71.77;100252.88;346039;28;1862;-70
2022/03/02 00:19:06;;;;;;;310.67;79.40;;;;;;;3.22;71.75;100252.88;346498;28;1754;-70
2022/03/02 00:19:17;;;;;;;309.70;79.33;;;;;;;3.23;71.81;100252.88;343998;28;945;-70
2022/03/02 00:19:27;;;;;;;310.50;79.77;;;;;;;3.23;71.78;100249.41;346798;28;976;-70
2022/03/02 00:19:38;;;;;;;310.15;80.25;;;;;;;3.23;71.52;100244.25;344035;28;892;-70
2022/03/02 00:19:48;;;;;;;310.07;79.93;;;;;;;3.22;71.36;100247.69;343203;28;1901;-70
2022/03/02 00:19:59;;;;;;;309.20;80.40;;;;;;;3.22;71.73;100242.53;341063;29;954;-70
2022/03/02 00:20:09;;;;;;;309.33;80.37;;;;;;;3.22;71.36;100252.88;344022;28;990;-72
2022/03/02 00:20:19;;;;;;;309.13;80.15;;;;;;;3.20;71.32;100244.25;344205;28;1302;-71
2022/03/02 00:20:30;;;;;;;312.17;81.20;;;;;;;3.21;71.79;100243.38;344897;28;1595;-72
2022/03/02 00:20:40;;;;;;;314.38;81.38;;;;;;;3.21;71.98;100248.56;342715;28;930;-72
2022/03/02 00:20:51;;;;;;;315.17;81.43;;;;;;;3.21;71.38;100246.84;342672;28;1895;-72
2022/03/02 00:21:01;;;;;;;311.90;79.82;;;;;;;3.22;71.58;100247.69;343362;28;2135;-72
2022/03/02 00:21:12;;;;;;;310.83;79.97;;;;;;;3.24;71.71;100248.56;345326;28;952;-72
2022/03/02 00:21:22;;;;;;;307.58;78.75;;;;;;;3.23;72.03;100249.41;343056;28;1934;-72
2022/03/02 00:21:32;;;;;;;306.87;78.07;;;;;;;3.23;71.86;100249.41;341427;29;976;-72
2022/03/02 00:21:43;;;;;;;307.33;77.13;;;;;;;3.21;71.53;100245.97;342533;28;1230;-72
2022/03/02 00:21:53;;;;;;;310.13;77.87;;;;;;;3.21;71.58;100246.84;344085;28;2394;-71
2022/03/02 00:22:04;;;;;;;311.67;78.50;;;;;;;3.21;71.63;100245.97;341289;28;1418;-71
2022/03/02 00:22:15;;;;;;;311.42;78.70;;;;;;;3.23;71.54;100239.06;345266;28;1470;-71
2022/03/02 00:22:25;;;;;;;310.73;79.23;;;;;;;3.25;72.01;100245.13;344010;28;956;-71
2022/03/02 00:22:36;;;;;;;312.15;79.18;;;;;;;3.24;71.81;100249.41;344605;28;1009;-71
2022/03/02 00:22:47;;;;;;;311.77;79.20;;;;;;;3.24;71.53;100245.97;342578;28;1313;-71
2022/03/02 00:22:57;;;;;;;310.87;78.70;;;;;;;3.25;71.69;100247.69;342685;28;1010;-71
2022/03/02 00:23:07;;;;;;;307.38;77.72;;;;;;;3.24;71.86;100243.38;342529;28;1547;-71
2022/03/02 00:23:18;;;;;;;306.93;77.17;;;;;;;3.26;71.52;100252.00;341322;29;826;-71
2022/03/02 00:23:29;;;;;;;306.73;76.60;;;;;;;3.26;71.47;100244.25;342341;28;1189;-71
2022/03/02 00:23:39;;;;;;;306.98;77.13;;;;;;;3.26;71.28;100245.09;340065;29;937;-71
2022/03/02 00:23:50;;;;;;;307.20;77.53;;;;;;;3.26;71.52;100241.66;340007;29;885;-71
2022/03/02 00:24:03;;;;;;;308.67;78.18;;;;;;;3.26;71.94;100245.09;340008;29;1597;-71
2022/03/02 00:24:14;;;;;;;309.33;78.05;;;;;;;3.28;71.00;100247.69;342430;28;1976;-72
2022/03/02 00:24:24;;;;;;;308.93;77.27;;;;;;;3.28;71.94;100247.69;342601;28;1956;-72
2022/03/02 00:24:34;;;;;;;306.97;75.90;;;;;;;3.26;71.21;100244.25;342651;28;983;-72
2022/03/02 00:24:50;;;;;;;308.65;76.25;;;;;;;3.24;71.71;100245.97;342472;28;1883;-72
2022/03/02 00:25:01;;;;;;;307.55;76.85;;;;;;;3.24;71.40;100249.41;342609;28;1641;-71
2022/03/02 00:25:11;;;;;;;306.97;77.60;;;;;;;3.24;71.86;100241.66;342419;28;1204;-71
2022/03/02 00:25:22;;;;;;;306.55;76.72;;;;;;;3.25;71.46;100247.69;342539;28;1359;-71
2022/03/02 00:25:32;;;;;;;306.13;76.73;;;;;;;3.25;71.21;100242.53;342615;28;1295;-71
2022/03/02 00:25:43;;;;;;;306.40;76.65;;;;;;;3.25;71.68;100242.53;342592;28;1355;-71
2022/03/02 00:25:53;;;;;;;307.20;77.40;;;;;;;3.22;71.58;100243.38;341247;28;988;-71
2022/03/02 00:26:04;;;;;;;307.30;77.70;;;;;;;3.21;71.60;100245.97;340073;29;997;-71
2022/03/02 00:26:14;;;;;;;306.92;77.80;;;;;;;3.20;71.83;100246.84;343922;28;1499;-71
2022/03/02 00:26:25;;;;;;;307.07;76.83;;;;;;;3.19;71.66;100248.56;342652;28;1427;-71
2022/03/02 00:26:35;;;;;;;307.23;76.28;;;;;;;3.21;71.41;100245.97;342695;28;817;-71
2022/03/02 00:26:45;;;;;;;305.93;75.53;;;;;;;3.20;71.30;100244.25;339454;29;2207;-71
2022/03/02 00:26:57;;;;;;;306.05;75.25;;;;;;;3.23;71.14;100246.84;339781;29;1221;-71
2022/03/02 00:27:08;;;;;;;306.05;75.20;;;;;;;3.23;71.75;100244.25;342515;28;1478;-71
2022/03/02 00:27:23;;;;;;;306.70;75.57;;;;;;;3.22;71.34;100237.34;342604;28;1041;-71
2022/03/02 00:27:33;;;;;;;306.05;76.05;;;;;;;3.20;71.71;100239.09;343119;28;1570;-71
2022/03/02 00:27:43;;;;;;;306.15;75.88;;;;;;;3.23;71.28;100241.66;343378;28;1048;-71
2022/03/02 00:27:54;;;;;;;306.07;75.70;;;;;;;3.22;71.81;100243.38;344008;28;965;-71
2022/03/02 00:28:04;;;;;;;305.63;75.50;;;;;;;3.22;71.12;100243.38;344006;28;820;-71
2022/03/02 00:28:15;;;;;;;305.17;75.17;;;;;;;3.19;71.48;100233.03;343952;28;910;-71
2022/03/02 00:28:25;;;;;;;305.55;75.43;;;;;;;3.22;71.77;100242.53;344023;28;1101;-71
2022/03/02 00:28:35;;;;;;;306.03;76.53;;;;;;;3.21;71.55;100248.56;342595;28;1201;-71
2022/03/02 00:28:46;;;;;;;306.83;76.97;;;;;;;3.23;71.73;100233.91;342665;28;1078;-71
2022/03/02 00:28:57;;;;;;;306.95;77.88;;;;;;;3.21;71.83;100244.25;339915;29;1324;-71
2022/03/02 00:29:07;;;;;;;306.23;77.55;;;;;;;3.18;71.84;100244.25;340980;29;1300;-71
2022/03/02 00:29:17;;;;;;;303.77;76.53;;;;;;;3.19;71.56;100242.53;339958;29;1206;-71
2022/03/02 00:29:28;;;;;;;304.90;76.50;;;;;;;3.15;72.49;100241.66;342667;28;802;-71
2022/03/02 00:29:38;;;;;;;305.67;76.63;;;;;;;3.15;72.00;100235.63;341314;29;843;-71
2022/03/02 00:29:49;;;;;;;306.88;77.57;;;;;;;3.13;72.20;100239.94;343026;28;2032;-71
2022/03/02 00:30:00;;;;;;;306.20;77.57;;;;;;;3.14;72.20;100236.50;344131;28;1209;-71
2022/03/02 00:30:10;;;;;;;306.70;77.97;;;;;;;3.14;72.41;100241.66;345289;28;1507;-71
2022/03/02 00:30:22;;;;;;;306.75;77.07;;;;;;;3.13;72.09;100240.81;343933;28;906;-71
2022/03/02 00:30:34;;;;;;;305.75;76.55;;;;;;;3.12;72.02;100238.22;343937;28;991;-71
2022/03/02 00:30:45;;;;;;;307.70;76.28;;;;;;;3.13;72.28;100237.34;341619;28;1445;-71
2022/03/02 00:30:55;;;;;;;306.77;76.53;;;;;;;3.13;72.99;100237.34;342252;28;1742;-71
2022/03/02 00:31:05;;;;;;;307.17;76.43;;;;;;;3.14;72.44;100241.66;343923;28;1216;-71
2022/03/02 00:31:16;;;;;;;306.50;77.80;;;;;;;3.11;72.47;100234.78;345179;28;1370;-71
2022/03/02 00:31:26;;;;;;;306.38;77.18;;;;;;;3.12;72.40;100235.63;345920;28;1970;-71
2022/03/02 00:31:37;;;;;;;306.05;76.88;;;;;;;3.12;72.74;100235.63;342477;28;1230;-71
2022/03/02 00:31:47;;;;;;;304.60;76.20;;;;;;;3.12;72.47;100238.22;340623;28;1629;-71
2022/03/02 00:31:58;;;;;;;305.77;76.22;;;;;;;3.14;72.48;100236.50;342869;28;879;-71
2022/03/02 00:32:08;;;;;;;307.60;76.73;;;;;;;3.14;72.79;100233.91;343767;28;1445;-71
2022/03/02 00:32:19;;;;;;;307.90;77.60;;;;;;;3.14;72.68;100239.94;343758;28;1307;-71
2022/03/02 00:32:29;;;;;;;307.63;77.85;;;;;;;3.15;72.70;100238.22;341540;28;1112;-71
2022/03/02 00:32:40;;;;;;;305.65;76.93;;;;;;;3.14;72.28;100239.94;342573;28;1372;-71
2022/03/02 00:32:50;;;;;;;307.27;76.47;;;;;;;3.15;72.39;100235.63;341299;29;850;-71
2022/03/02 00:33:00;;;;;;;306.33;75.70;;;;;;;3.14;72.99;100239.94;341370;29;1015;-71
2022/03/02 00:33:11;;;;;;;306.90;76.73;;;;;;;3.14;72.73;100239.94;342671;28;890;-71
2022/03/02 00:33:21;;;;;;;306.23;76.25;;;;;;;3.14;72.57;100239.94;342688;28;1235;-71
2022/03/02 00:33:32;;;;;;;306.37;76.37;;;;;;;3.13;72.81;100237.34;343874;28;1452;-71
2022/03/02 00:33:42;;;;;;;307.60;76.53;;;;;;;3.13;72.79;100232.19;341186;28;1475;-71
2022/03/02 00:33:53;;;;;;;307.67;77.87;;;;;;;3.12;73.04;100235.63;338651;29;1661;-71
2022/03/02 00:34:03;;;;;;;308.70;78.47;;;;;;;3.13;72.75;100237.34;342465;28;1326;-71
2022/03/02 00:34:13;;;;;;;309.43;77.97;;;;;;;3.12;73.28;100231.31;343426;28;1168;-71
2022/03/02 00:34:24;;;;;;;308.65;76.43;;;;;;;3.13;73.34;100237.34;342736;28;995;-71
2022/03/02 00:34:34;;;;;;;306.90;75.90;;;;;;;3.13;73.26;100238.22;341307;28;1396;-71
2022/03/02 00:34:45;;;;;;;305.07;75.80;;;;;;;3.13;73.48;100232.19;342195;28;2350;-71
2022/03/02 00:34:55;;;;;;;305.70;76.25;;;;;;;3.12;73.37;100233.06;342115;28;884;-71
2022/03/02 00:35:06;;;;;;;306.90;76.00;;;;;;;3.14;73.78;100236.50;341612;28;833;-71
2022/03/02 00:35:17;;;;;;;307.90;76.38;;;;;;;3.13;73.50;100232.19;342593;28;1479;-71
2022/03/02 00:35:27;;;;;;;306.85;76.30;;;;;;;3.13;73.39;100232.19;341362;29;845;-71
2022/03/02 00:35:37;;;;;;;305.85;76.50;;;;;;;3.12;73.29;100233.06;341172;28;1980;-71
2022/03/02 00:35:48;;;;;;;307.33;77.83;;;;;;;3.12;73.98;100230.47;340446;29;1997;-71
2022/03/02 00:35:58;;;;;;;307.60;77.15;;;;;;;3.13;73.50;100239.94;340057;29;913;-71
2022/03/02 00:36:08;;;;;;;307.40;77.23;;;;;;;3.12;73.56;100235.63;341242;28;1401;-71
2022/03/02 00:36:20;;;;;;;307.23;76.63;;;;;;;3.11;74.05;100228.75;340819;29;1994;-71
2022/03/02 00:36:30;;;;;;;306.92;77.40;;;;;;;3.08;74.20;100239.94;341316;29;927;-71
2022/03/02 00:36:41;;;;;;;309.63;78.17;;;;;;;3.07;73.72;100233.06;341152;29;1509;-71
2022/03/02 00:36:51;;;;;;;310.83;78.60;;;;;;;3.07;73.89;100232.19;341152;29;1103;-71
2022/03/02 00:37:02;;;;;;;310.57;78.87;;;;;;;3.08;74.55;100233.91;341291;29;854;-71
2022/03/02 00:37:12;;;;;;;307.25;77.55;;;;;;;3.07;74.10;100235.63;342371;28;1374;-71
2022/03/02 00:37:23;;;;;;;306.85;77.03;;;;;;;3.08;74.50;100233.91;342606;28;1155;-71
2022/03/02 00:37:33;;;;;;;307.20;77.53;;;;;;;3.09;74.46;100235.63;342451;28;1918;-71
2022/03/02 00:37:43;;;;;;;307.63;78.27;;;;;;;3.09;74.42;100235.63;343947;28;910;-71
2022/03/02 00:37:54;;;;;;;306.50;77.60;;;;;;;3.10;74.06;100237.34;342614;28;932;-71
2022/03/02 00:38:06;;;;;;;307.60;78.67;;;;;;;3.10;74.49;100232.19;342712;28;916;-71
2022/03/02 00:38:16;;;;;;;306.65;78.32;;;;;;;3.10;74.36;100232.19;342512;28;1303;-71
2022/03/02 00:38:27;;;;;;;306.03;77.87;;;;;;;3.10;74.21;100227.88;341137;29;885;-71
2022/03/02 00:38:37;;;;;;;304.97;77.17;;;;;;;3.11;74.01;100233.91;343827;28;1164;-71
2022/03/02 00:38:47;;;;;;;304.75;76.88;;;;;;;3.09;74.39;100228.75;344003;28;944;-71
2022/03/02 00:38:58;;;;;;;305.83;76.90;;;;;;;3.10;74.42;100234.78;342710;28;983;-71
2022/03/02 00:39:08;;;;;;;307.70;76.25;;;;;;;3.10;74.36;100227.88;342330;28;1084;-71
2022/03/02 00:39:19;;;;;;;309.83;76.80;;;;;;;3.09;74.81;100236.50;341290;29;1315;-71
2022/03/02 00:39:29;;;;;;;313.17;78.28;;;;;;;3.09;74.59;100233.06;341220;29;878;-71
2022/03/02 00:39:39;;;;;;;312.47;79.17;;;;;;;3.07;74.78;100222.72;343910;28;962;-71
2022/03/02 00:39:50;;;;;;;309.83;79.30;;;;;;;3.08;74.40;100228.75;345284;28;1954;-71
2022/03/02 00:40:00;;;;;;;305.10;77.83;;;;;;;3.09;74.36;100235.63;343980;28;872;-71
2022/03/02 00:40:11;;;;;;;303.58;76.25;;;;;;;3.09;74.47;100231.31;342601;28;944;-71
2022/03/02 00:40:21;;;;;;;304.90;76.60;;;;;;;3.11;74.94;100231.31;343925;28;1310;-71
2022/03/02 00:40:32;;;;;;;306.33;76.13;;;;;;;3.11;74.64;100233.91;343950;28;1206;-71
2022/03/02 00:40:42;;;;;;;308.43;77.23;;;;;;;3.12;74.80;100230.47;341161;28;1173;-71
2022/03/02 00:40:53;;;;;;;307.83;76.53;;;;;;;3.12;74.92;100225.28;343714;28;1426;-71
2022/03/02 00:41:04;;;;;;;308.02;77.22;;;;;;;3.12;74.35;100230.47;343637;28;2674;-71
2022/03/02 00:41:15;;;;;;;305.40;76.85;;;;;;;3.04;75.21;100230.47;342320;28;1461;-71
2022/03/02 00:41:25;;;;;;;305.55;76.95;;;;;;;3.04;74.63;100229.59;339915;29;1691;-71
2022/03/02 00:41:36;;;;;;;305.13;75.93;;;;;;;3.03;74.84;100230.50;340378;29;1255;-71
2022/03/02 00:41:46;;;;;;;306.63;76.05;;;;;;;3.04;74.79;100234.78;342554;28;1586;-71
2022/03/02 00:41:56;;;;;;;308.50;76.83;;;;;;;3.02;75.17;100227.06;342513;28;1322;-70
2022/03/02 00:42:07;;;;;;;307.80;76.75;;;;;;;3.02;75.18;100228.78;341252;29;1143;-70
2022/03/02 00:42:17;;;;;;;307.83;77.50;;;;;;;3.04;75.47;100229.59;342558;28;1196;-70
2022/03/02 00:42:29;;;;;;;307.10;77.07;;;;;;;3.04;74.98;100227.03;341132;28;1598;-70
2022/03/02 00:42:40;;;;;;;307.27;76.95;;;;;;;3.04;74.58;100229.59;342537;28;1339;-70
2022/03/02 00:42:50;;;;;;;305.30;76.20;;;;;;;3.02;75.32;100227.06;343898;28;1000;-70
2022/03/02 00:43:01;;;;;;;305.80;75.18;;;;;;;3.02;75.05;100223.59;343764;28;1252;-70
2022/03/02 00:43:11;;;;;;;308.70;77.20;;;;;;;3.04;75.76;100229.59;342568;28;953;-70
2022/03/02 00:43:22;;;;;;;309.08;78.65;;;;;;;3.04;75.04;100232.19;341302;29;983;-70
2022/03/02 00:43:32;;;;;;;306.87;79.13;;;;;;;3.05;75.45;100223.56;340561;29;1747;-70
2022/03/02 00:43:43;;;;;;;304.30;76.93;;;;;;;3.07;75.16;100227.00;345389;28;817;-71
2022/03/02 00:43:53;;;;;;;305.87;76.20;;;;;;;3.08;75.15;100231.31;342555;28;1219;-71
2022/03/02 00:44:04;;;;;;;308.08;77.18;;;;;;;3.08;75.01;100226.16;339798;29;1468;-71
2022/03/02 00:44:14;;;;;;;307.47;77.83;;;;;;;3.08;75.03;100228.75;342578;28;1106;-71
2022/03/02 00:44:25;;;;;;;306.30;77.35;;;;;;;3.10;75.14;100227.00;343983;28;1005;-71
2022/03/02 00:44:35;;;;;;;305.13;77.33;;;;;;;3.10;75.00;100222.72;341202;28;1529;-71
2022/03/02 00:44:46;;;;;;;305.95;77.60;;;;;;;3.11;74.85;100228.75;342079;28;1620;-71
2022/03/02 00:44:56;;;;;;;305.70;77.13;;;;;;;3.08;74.56;100223.56;343882;28;989;-71
2022/03/02 00:45:07;;;;;;;306.33;76.72;;;;;;;3.05;75.32;100219.25;342548;28;873;-71
2022/03/02 00:45:17;;;;;;;306.30;77.27;;;;;;;3.07;74.82;100221.84;342631;28;1199;-71
2022/03/02 00:45:28;;;;;;;306.58;77.45;;;;;;;3.05;75.33;100224.44;342601;28;1232;-71
2022/03/02 00:45:38;;;;;;;305.73;77.30;;;;;;;3.06;74.90;100225.28;343816;28;1212;-71
2022/03/02 00:45:49;;;;;;;304.85;76.70;;;;;;;3.07;75.59;100221.84;343502;28;1564;-71
2022/03/02 00:45:59;;;;;;;305.77;77.20;;;;;;;3.08;75.18;100226.16;341640;28;1990;-70
2022/03/02 00:46:09;;;;;;;304.58;76.68;;;;;;;3.07;75.46;100221.84;341757;28;1237;-70
2022/03/02 00:46:20;;;;;;;305.63;76.63;;;;;;;3.08;74.78;100223.56;341256;29;862;-70
2022/03/02 00:46:31;;;;;;;305.75;76.30;;;;;;;3.08;75.43;100223.56;343876;28;1117;-70
2022/03/02 00:46:42;;;;;;;307.80;76.82;;;;;;;3.08;75.29;100226.16;342552;28;903;-70
2022/03/02 00:46:52;;;;;;;308.02;76.78;;;;;;;3.07;75.18;100221.84;343982;28;807;-70
2022/03/02 00:47:04;;;;;;;305.93;76.50;;;;;;;3.07;74.59;100221.84;342565;28;896;-70
2022/03/02 00:47:14;;;;;;;305.58;76.78;;;;;;;3.06;75.28;100226.16;342581;28;1122;-70
2022/03/02 00:47:25;;;;;;;306.83;77.57;;;;;;;3.07;74.82;100224.44;344271;28;1558;-70
2022/03/02 00:47:36;;;;;;;307.73;78.13;;;;;;;3.08;75.04;100226.16;342678;28;834;-70
2022/03/02 00:47:46;;;;;;;304.57;76.63;;;;;;;3.07;75.80;100217.53;341317;29;849;-70
2022/03/02 00:47:58;;;;;;;302.98;74.57;;;;;;;3.07;75.24;100227.88;342526;28;960;-70
2022/03/02 00:48:08;;;;;;;305.42;74.47;;;;;;;3.08;75.17;100223.56;342606;28;1529;-72
2022/03/02 00:48:19;;;;;;;307.35;75.47;;;;;;;3.07;75.08;100222.72;343908;28;1218;-72
2022/03/02 00:48:29;;;;;;;307.65;75.45;;;;;;;3.10;75.47;100227.00;343920;28;1417;-72
2022/03/02 00:48:40;;;;;;;307.63;74.93;;;;;;;3.07;75.44;100227.00;343924;28;1193;-72
2022/03/02 00:48:51;;;;;;;307.88;75.03;;;;;;;3.07;75.83;100221.84;342611;28;1235;-72
2022/03/02 00:49:02;;;;;;;305.35;75.82;;;;;;;3.07;75.10;100227.00;341202;28;1410;-71
2022/03/02 00:49:12;;;;;;;303.52;75.88;;;;;;;3.08;75.33;100223.56;342874;28;1009;-71
2022/03/02 00:49:26;;;;;;;303.60;76.00;;;;;;;3.07;75.75;100227.88;342645;28;1395;-71
2022/03/02 00:49:37;;;;;;;305.77;75.80;;;;;;;3.06;75.35;100220.13;342574;28;885;-71